Time;durP1;ratioP1;P1;durP2;ratioP2;P2;SDS_P1;SDS_P2;PMS_P1;PMS_P2;Temp;Humidity;BMP_temperature;BMP_pressure;BME280_temperature;BME280_humidity;BME280_pressure;Samples;Min_cycle;Max_cycle;Signal;HPM_P1;HPM_P2
2022/07/07 00:02:15;;;;;;;3.60;2.65;;;;;;;;;;6188102;23;20013;-58
2022/07/07 00:04:42;;;;;;;3.88;2.15;;;;;;;;;;6206251;23;20028;-57
2022/07/07 00:07:09;;;;;;;4.47;2.28;;;;;;;;;;6196934;23;20376;-58
2022/07/07 00:09:36;;;;;;;10.93;2.58;;;;;;;;;;6197386;23;20080;-58
2022/07/07 00:12:04;;;;;;;3.28;2.75;;;;;;;;;;6185023;23;20713;-58
2022/07/07 00:14:31;;;;;;;4.30;2.42;;;;;;;;;;6208714;23;20016;-58
2022/07/07 00:16:58;;;;;;;5.97;2.60;;;;;;;;;;6184864;23;20331;-58
2022/07/07 00:19:25;;;;;;;7.40;3.70;;;;;;;;;;6202162;23;20063;-58
2022/07/07 00:21:51;;;;;;;5.03;2.67;;;;;;;;;;6192024;23;20013;-58
2022/07/07 00:24:18;;;;;;;4.30;2.70;;;;;;;;;;6205982;23;20087;-57
2022/07/07 00:26:44;;;;;;;9.63;3.42;;;;;;;;;;6182298;23;20549;-57
2022/07/07 00:29:13;;;;;;;4.85;2.70;;;;;;;;;;6201516;23;20024;-57
2022/07/07 00:31:39;;;;;;;4.03;2.70;;;;;;;;;;6190367;23;20020;-58
2022/07/07 00:34:06;;;;;;;4.78;2.40;;;;;;;;;;6204516;23;20013;-58
2022/07/07 00:36:32;;;;;;;4.15;2.97;;;;;;;;;;6188960;23;20013;-58
2022/07/07 00:39:01;;;;;;;6.40;3.05;;;;;;;;;;6199575;23;20013;-58
2022/07/07 00:41:28;;;;;;;4.30;2.47;;;;;;;;;;6189954;23;20027;-57
2022/07/07 00:43:56;;;;;;;7.28;3.10;;;;;;;;;;6203709;23;20075;-57
2022/07/07 00:46:24;;;;;;;7.70;2.67;;;;;;;;;;6194734;23;20019;-58
2022/07/07 00:48:51;;;;;;;4.57;3.28;;;;;;;;;;6196614;23;20032;-58
2022/07/07 00:51:17;;;;;;;4.78;2.53;;;;;;;;;;6199875;23;20020;-58
2022/07/07 00:53:45;;;;;;;6.90;3.20;;;;;;;;;;6190850;23;20087;-58
2022/07/07 00:56:11;;;;;;;5.32;2.58;;;;;;;;;;6203100;23;20040;-57
2022/07/07 00:58:38;;;;;;;5.30;2.35;;;;;;;;;;6197702;23;20012;-58
2022/07/07 01:01:04;;;;;;;3.47;2.30;;;;;;;;;;6199331;23;20071;-56
2022/07/07 01:03:33;;;;;;;4.70;3.00;;;;;;;;;;6197212;23;20017;-57
2022/07/07 01:06:02;;;;;;;3.55;2.35;;;;;;;;;;6197749;23;20453;-58
2022/07/07 01:08:29;;;;;;;4.45;1.92;;;;;;;;;;6200097;23;20016;-57
2022/07/07 01:10:56;;;;;;;3.92;2.53;;;;;;;;;;6202172;23;20013;-57
2022/07/07 01:13:22;;;;;;;7.38;2.83;;;;;;;;;;6192094;23;20047;-58
2022/07/07 01:15:48;;;;;;;5.32;2.65;;;;;;;;;;6199471;23;20012;-57
2022/07/07 01:18:15;;;;;;;6.50;2.88;;;;;;;;;;6184860;23;20013;-58
2022/07/07 01:20:46;;;;;;;8.75;2.60;;;;;;;;;;6204272;23;20067;-58
2022/07/07 01:23:14;;;;;;;5.18;2.92;;;;;;;;;;6180860;23;20013;-58
2022/07/07 01:25:40;;;;;;;5.72;2.92;;;;;;;;;;6203011;23;20047;-58
2022/07/07 01:28:07;;;;;;;5.28;2.47;;;;;;;;;;6187132;23;20024;-58
2022/07/07 01:30:33;;;;;;;4.90;1.90;;;;;;;;;;6201699;23;20020;-58
2022/07/07 01:33:00;;;;;;;4.07;2.08;;;;;;;;;;6189359;23;20012;-58
2022/07/07 01:35:27;;;;;;;5.78;2.00;;;;;;;;;;6196149;23;20067;-58
2022/07/07 01:37:54;;;;;;;3.45;1.83;;;;;;;;;;6199953;23;20399;-58
2022/07/07 01:40:22;;;;;;;6.57;1.98;;;;;;;;;;6195802;23;20012;-58
2022/07/07 01:42:48;;;;;;;3.92;1.80;;;;;;;;;;6198622;23;20051;-57
2022/07/07 01:45:16;;;;;;;2.78;1.83;;;;;;;;;;6203421;23;20399;-58
2022/07/07 01:47:43;;;;;;;3.72;2.00;;;;;;;;;;6189006;23;20020;-58
2022/07/07 01:50:10;;;;;;;2.63;1.75;;;;;;;;;;6198634;23;20012;-58
2022/07/07 01:52:37;;;;;;;4.90;2.50;;;;;;;;;;6191314;23;20012;-58
2022/07/07 01:55:04;;;;;;;6.15;3.00;;;;;;;;;;6202383;23;20027;-58
2022/07/07 01:57:33;;;;;;;4.78;2.50;;;;;;;;;;6188474;23;20305;-58
2022/07/07 01:59:59;;;;;;;4.82;2.70;;;;;;;;;;6201645;23;20020;-58
2022/07/07 02:02:25;;;;;;;9.18;2.92;;;;;;;;;;6182703;23;20044;-57
2022/07/07 02:04:52;;;;;;;4.38;2.58;;;;;;;;;;6198521;23;20351;-58
2022/07/07 02:07:19;;;;;;;5.80;2.65;;;;;;;;;;6191084;23;20040;-58
2022/07/07 02:09:45;;;;;;;2.75;2.25;;;;;;;;;;6199979;23;20021;-58
2022/07/07 02:12:12;;;;;;;7.32;2.30;;;;;;;;;;6197027;23;20537;-57
2022/07/07 02:14:40;;;;;;;5.25;2.65;;;;;;;;;;6198310;23;20012;-57
2022/07/07 02:17:08;;;;;;;2.92;2.40;;;;;;;;;;6194205;23;20017;-57
2022/07/07 02:19:34;;;;;;;3.00;2.20;;;;;;;;;;6202265;23;20021;-58
2022/07/07 02:22:01;;;;;;;3.42;2.20;;;;;;;;;;6187470;23;20016;-58
2022/07/07 02:24:27;;;;;;;4.38;2.20;;;;;;;;;;6204314;23;20013;-58
2022/07/07 02:26:54;;;;;;;4.38;1.92;;;;;;;;;;6186655;23;20016;-58
2022/07/07 02:29:20;;;;;;;2.70;1.52;;;;;;;;;;6205864;23;20021;-57
2022/07/07 02:31:48;;;;;;;4.68;1.80;;;;;;;;;;6185040;23;20598;-57
2022/07/07 02:34:15;;;;;;;6.07;2.03;;;;;;;;;;6205847;23;20013;-58
2022/07/07 02:36:41;;;;;;;2.28;1.80;;;;;;;;;;6188665;23;20019;-57
2022/07/07 02:39:08;;;;;;;2.90;2.22;;;;;;;;;;6182021;23;20013;-57
2022/07/07 02:41:34;;;;;;;1.98;1.55;;;;;;;;;;6201462;23;20063;-57
2022/07/07 02:44:01;;;;;;;1.65;1.15;;;;;;;;;;6197735;23;20016;-58
2022/07/07 02:46:28;;;;;;;1.55;1.35;;;;;;;;;;6202681;23;20020;-57
2022/07/07 02:48:56;;;;;;;3.13;1.50;;;;;;;;;;6187342;23;20021;-57
2022/07/07 02:51:22;;;;;;;1.75;1.50;;;;;;;;;;6201973;23;20016;-58
2022/07/07 02:53:50;;;;;;;2.55;1.50;;;;;;;;;;6187788;23;20016;-58
2022/07/07 02:56:17;;;;;;;3.47;1.38;;;;;;;;;;6201969;23;20541;-58
2022/07/07 02:58:45;;;;;;;2.42;1.40;;;;;;;;;;6200631;23;20017;-58
2022/07/07 03:01:12;;;;;;;2.08;1.33;;;;;;;;;;6196253;23;20017;-58
2022/07/07 03:03:38;;;;;;;4.03;1.10;;;;;;;;;;6196156;23;20024;-58
2022/07/07 03:06:06;;;;;;;2.88;1.50;;;;;;;;;;6178832;23;20207;-58
2022/07/07 03:08:33;;;;;;;1.92;1.23;;;;;;;;;;6186201;23;20021;-58
2022/07/07 03:11:00;;;;;;;3.08;1.40;;;;;;;;;;6202570;23;20048;-57
2022/07/07 03:13:26;;;;;;;3.38;1.20;;;;;;;;;;6195863;23;20300;-57
2022/07/07 03:15:53;;;;;;;2.72;1.08;;;;;;;;;;6197715;23;20723;-57
2022/07/07 03:18:19;;;;;;;2.70;1.00;;;;;;;;;;6194836;23;20012;-57
2022/07/07 03:20:46;;;;;;;1.40;0.93;;;;;;;;;;6203584;23;20017;-57
2022/07/07 03:23:14;;;;;;;0.95;0.95;;;;;;;;;;6203748;23;20043;-58
2022/07/07 03:25:40;;;;;;;1.02;0.98;;;;;;;;;;6206713;23;20070;-58
2022/07/07 03:28:07;;;;;;;1.00;0.75;;;;;;;;;;6196594;23;20023;-58
2022/07/07 03:30:33;;;;;;;0.82;0.82;;;;;;;;;;6194714;23;20039;-57
2022/07/07 03:33:00;;;;;;;1.77;0.73;;;;;;;;;;6201857;23;20039;-58
2022/07/07 03:35:26;;;;;;;1.58;0.80;;;;;;;;;;6201440;23;20070;-57
2022/07/07 03:37:53;;;;;;;2.83;0.98;;;;;;;;;;6192716;23;20036;-58
2022/07/07 03:40:21;;;;;;;2.72;0.65;;;;;;;;;;6187818;23;20362;-57
2022/07/07 03:42:49;;;;;;;0.85;0.68;;;;;;;;;;6201469;23;20055;-58
2022/07/07 03:45:15;;;;;;;0.40;0.32;;;;;;;;;;6192467;23;20067;-57
2022/07/07 03:47:42;;;;;;;1.00;0.60;;;;;;;;;;6172402;23;20087;-57
2022/07/07 03:50:09;;;;;;;0.88;0.65;;;;;;;;;;6196159;23;20024;-58
2022/07/07 03:52:35;;;;;;;1.25;0.40;;;;;;;;;;6193655;23;20017;-58
2022/07/07 03:55:02;;;;;;;0.45;0.40;;;;;;;;;;6198378;23;20013;-57
2022/07/07 03:57:30;;;;;;;0.65;0.50;;;;;;;;;;6201284;23;20017;-58
2022/07/07 03:59:56;;;;;;;1.02;0.40;;;;;;;;;;6191170;23;20012;-57
2022/07/07 04:02:23;;;;;;;1.23;0.35;;;;;;;;;;6211791;23;20031;-58
2022/07/07 04:04:49;;;;;;;2.70;0.68;;;;;;;;;;6192041;23;20387;-58
2022/07/07 04:07:16;;;;;;;1.00;0.28;;;;;;;;;;6185209;23;20021;-58
2022/07/07 04:09:42;;;;;;;0.85;0.70;;;;;;;;;;6204175;23;20023;-57
2022/07/07 04:12:09;;;;;;;1.50;0.68;;;;;;;;;;6194454;23;20016;-58
2022/07/07 04:14:36;;;;;;;1.17;0.47;;;;;;;;;;6200505;23;20016;-58
2022/07/07 04:17:03;;;;;;;0.85;0.55;;;;;;;;;;6197761;23;20017;-58
2022/07/07 04:19:30;;;;;;;0.85;0.50;;;;;;;;;;6208353;23;20096;-57
2022/07/07 04:21:58;;;;;;;2.05;0.68;;;;;;;;;;6196657;23;20016;-58
2022/07/07 04:24:25;;;;;;;1.00;0.53;;;;;;;;;;6203952;23;20016;-57
2022/07/07 04:26:51;;;;;;;1.25;0.60;;;;;;;;;;6195069;23;20013;-58
2022/07/07 04:29:18;;;;;;;0.60;0.50;;;;;;;;;;6196931;23;20024;-58
2022/07/07 04:31:46;;;;;;;3.05;0.63;;;;;;;;;;6194783;23;20017;-57
2022/07/07 04:34:13;;;;;;;1.48;0.70;;;;;;;;;;6210117;23;20063;-57
2022/07/07 04:36:39;;;;;;;6.47;0.70;;;;;;;;;;6193196;23;20070;-58
2022/07/07 04:39:06;;;;;;;0.88;0.57;;;;;;;;;;6173264;23;20012;-58
2022/07/07 04:41:33;;;;;;;0.98;0.60;;;;;;;;;;6203424;23;20021;-58
2022/07/07 04:43:59;;;;;;;1.85;0.68;;;;;;;;;;6197172;23;20017;-58
2022/07/07 04:46:26;;;;;;;1.23;0.85;;;;;;;;;;6206902;23;20461;-58
2022/07/07 04:48:54;;;;;;;2.25;0.90;;;;;;;;;;6176569;23;20544;-58
2022/07/07 04:51:20;;;;;;;1.40;0.95;;;;;;;;;;6206152;23;20017;-58
2022/07/07 04:53:47;;;;;;;2.15;0.90;;;;;;;;;;6185934;23;20474;-57
2022/07/07 04:56:13;;;;;;;2.63;0.85;;;;;;;;;;6200932;23;20051;-58
2022/07/07 04:58:42;;;;;;;1.75;0.93;;;;;;;;;;6199576;23;20027;-58
2022/07/07 05:01:08;;;;;;;0.80;0.77;;;;;;;;;;6201246;23;20016;-58
2022/07/07 05:03:36;;;;;;;2.20;0.93;;;;;;;;;;6200883;23;20020;-57
2022/07/07 05:06:04;;;;;;;0.80;0.80;;;;;;;;;;6206794;23;20222;-57
2022/07/07 05:08:30;;;;;;;1.55;0.90;;;;;;;;;;6185915;23;20100;-57
2022/07/07 05:10:59;;;;;;;2.53;0.75;;;;;;;;;;6202858;23;20029;-58
2022/07/07 05:13:25;;;;;;;2.15;1.00;;;;;;;;;;6202386;23;20013;-57
2022/07/07 05:15:52;;;;;;;0.75;0.75;;;;;;;;;;6197777;23;20086;-57
2022/07/07 05:18:18;;;;;;;1.95;0.88;;;;;;;;;;6202788;23;20068;-57
2022/07/07 05:20:45;;;;;;;1.67;0.77;;;;;;;;;;6192623;23;20570;-57
2022/07/07 05:23:12;;;;;;;1.35;1.25;;;;;;;;;;6201428;23;20443;-58
2022/07/07 05:25:39;;;;;;;1.17;0.90;;;;;;;;;;6195160;23;20012;-57
2022/07/07 05:28:05;;;;;;;1.63;1.15;;;;;;;;;;6197995;23;20371;-57
2022/07/07 05:30:32;;;;;;;2.33;0.98;;;;;;;;;;6190670;23;20043;-57
2022/07/07 05:32:59;;;;;;;2.05;1.55;;;;;;;;;;6200752;23;20012;-57
2022/07/07 05:35:25;;;;;;;1.98;1.00;;;;;;;;;;6188013;23;20078;-57
2022/07/07 05:37:52;;;;;;;4.10;1.20;;;;;;;;;;6203419;23;20017;-57
2022/07/07 05:40:20;;;;;;;2.80;1.48;;;;;;;;;;6184180;23;20032;-57
2022/07/07 05:42:46;;;;;;;4.15;1.23;;;;;;;;;;6204194;23;20016;-57
2022/07/07 05:45:13;;;;;;;4.30;1.20;;;;;;;;;;6198125;23;20032;-58
2022/07/07 05:47:40;;;;;;;2.42;1.23;;;;;;;;;;6201085;23;20065;-57
2022/07/07 05:50:07;;;;;;;4.18;1.50;;;;;;;;;;6192690;23;20021;-57
2022/07/07 05:52:33;;;;;;;5.18;2.15;;;;;;;;;;6196819;23;20051;-58
2022/07/07 05:55:00;;;;;;;4.32;1.95;;;;;;;;;;6201940;23;20075;-58
2022/07/07 05:57:28;;;;;;;3.15;1.65;;;;;;;;;;6198056;23;20013;-57
2022/07/07 05:59:54;;;;;;;3.75;1.50;;;;;;;;;;6195849;23;20013;-58
2022/07/07 06:02:21;;;;;;;5.35;2.22;;;;;;;;;;6196354;23;20024;-58
2022/07/07 06:04:47;;;;;;;3.47;1.80;;;;;;;;;;6196880;23;20024;-56
2022/07/07 06:07:13;;;;;;;3.00;1.65;;;;;;;;;;6201136;23;20020;-57
2022/07/07 06:09:41;;;;;;;3.75;1.60;;;;;;;;;;6198846;23;20020;-58
2022/07/07 06:12:08;;;;;;;3.25;1.35;;;;;;;;;;6196649;23;20039;-58
2022/07/07 06:14:36;;;;;;;4.15;1.63;;;;;;;;;;6190679;23;20013;-57
2022/07/07 06:17:03;;;;;;;3.35;1.65;;;;;;;;;;6196417;23;20017;-58
2022/07/07 06:19:30;;;;;;;4.15;1.55;;;;;;;;;;6197199;23;20013;-57
2022/07/07 06:21:57;;;;;;;2.58;1.80;;;;;;;;;;6193772;23;20012;-58
2022/07/07 06:24:23;;;;;;;3.85;1.67;;;;;;;;;;6201178;23;20027;-58
2022/07/07 06:26:50;;;;;;;1.83;1.30;;;;;;;;;;6198167;23;20082;-58
2022/07/07 06:29:17;;;;;;;2.88;1.90;;;;;;;;;;6199595;23;20023;-58
2022/07/07 06:31:45;;;;;;;2.45;1.50;;;;;;;;;;6194956;23;20023;-58
2022/07/07 06:34:11;;;;;;;3.42;1.42;;;;;;;;;;6200815;23;20036;-58
2022/07/07 06:36:38;;;;;;;4.10;1.95;;;;;;;;;;6198209;23;20012;-58
2022/07/07 06:39:04;;;;;;;1.92;1.50;;;;;;;;;;6197402;23;20077;-59
2022/07/07 06:41:34;;;;;;;1.55;1.20;;;;;;;;;;6195627;23;20016;-58
2022/07/07 06:44:01;;;;;;;2.65;1.38;;;;;;;;;;6194676;23;20017;-58
2022/07/07 06:46:27;;;;;;;5.15;1.92;;;;;;;;;;6205561;23;20078;-58
2022/07/07 06:48:55;;;;;;;2.83;1.50;;;;;;;;;;6196072;23;20020;-58
2022/07/07 06:51:22;;;;;;;6.03;1.45;;;;;;;;;;6202114;23;20025;-58
2022/07/07 06:53:49;;;;;;;4.70;1.27;;;;;;;;;;6155725;23;20366;-45
2022/07/07 06:56:15;;;;;;;2.40;1.55;;;;;;;;;;6099119;23;20017;-44
2022/07/07 06:58:41;;;;;;;1.35;1.25;;;;;;;;;;6148557;23;20021;-44
2022/07/07 07:01:08;;;;;;;3.03;1.38;;;;;;;;;;6170142;23;20012;-49
2022/07/07 07:03:34;;;;;;;3.63;1.45;;;;;;;;;;6160179;23;20285;-46
2022/07/07 07:06:03;;;;;;;5.38;1.45;;;;;;;;;;6146609;23;20013;-45
2022/07/07 07:08:29;;;;;;;5.40;1.52;;;;;;;;;;6158618;23;20036;-46
2022/07/07 07:10:56;;;;;;;3.22;1.35;;;;;;;;;;6171431;23;20040;-45
2022/07/07 07:13:22;;;;;;;2.63;1.20;;;;;;;;;;6117705;23;20071;-44
2022/07/07 07:15:49;;;;;;;1.70;1.50;;;;;;;;;;6165057;23;20044;-48
2022/07/07 07:18:15;;;;;;;1.65;1.30;;;;;;;;;;6141351;23;20021;-44
2022/07/07 07:20:42;;;;;;;1.45;1.20;;;;;;;;;;6167027;23;20028;-45
2022/07/07 07:23:10;;;;;;;3.03;1.35;;;;;;;;;;6165127;23;20081;-44
2022/07/07 07:25:37;;;;;;;4.22;1.45;;;;;;;;;;6171773;23;20013;-45
2022/07/07 07:28:03;;;;;;;2.42;1.10;;;;;;;;;;6164427;23;20068;-45
2022/07/07 07:30:31;;;;;;;2.72;1.23;;;;;;;;;;6160056;23;20571;-45
2022/07/07 07:32:58;;;;;;;3.05;1.08;;;;;;;;;;6174489;23;20017;-47
2022/07/07 07:35:24;;;;;;;1.10;0.82;;;;;;;;;;6171375;23;20068;-45
2022/07/07 07:37:51;;;;;;;1.05;0.80;;;;;;;;;;6155935;23;20492;-44
2022/07/07 07:40:18;;;;;;;1.40;0.73;;;;;;;;;;6163233;23;20017;-45
2022/07/07 07:42:45;;;;;;;1.00;0.90;;;;;;;;;;6166902;23;20013;-44
2022/07/07 07:45:12;;;;;;;2.63;0.70;;;;;;;;;;6157879;23;20077;-44
2022/07/07 07:47:39;;;;;;;2.25;1.13;;;;;;;;;;6167545;23;20013;-46
2022/07/07 07:50:06;;;;;;;4.50;0.90;;;;;;;;;;6150833;23;20032;-46
2022/07/07 07:52:33;;;;;;;1.85;0.60;;;;;;;;;;6154658;23;20049;-45
2022/07/07 07:55:00;;;;;;;3.38;1.10;;;;;;;;;;6113883;23;20061;-48
2022/07/07 07:57:28;;;;;;;1.50;0.60;;;;;;;;;;6110398;23;20014;-50
2022/07/07 07:59:55;;;;;;;1.65;0.70;;;;;;;;;;6089408;23;20049;-48
2022/07/07 08:02:21;;;;;;;1.65;1.25;;;;;;;;;;6112255;23;20073;-45
2022/07/07 08:04:48;;;;;;;0.70;0.50;;;;;;;;;;6067670;23;20077;-45
2022/07/07 08:07:14;;;;;;;0.98;0.70;;;;;;;;;;6112654;23;20080;-47
2022/07/07 08:09:41;;;;;;;1.88;1.10;;;;;;;;;;6084574;23;20018;-48
2022/07/07 08:12:08;;;;;;;0.75;0.40;;;;;;;;;;6084089;23;20025;-46
2022/07/07 08:14:36;;;;;;;1.65;0.60;;;;;;;;;;6049900;23;20394;-45
2022/07/07 08:17:02;;;;;;;0.28;0.17;;;;;;;;;;6109190;23;20014;-45
2022/07/07 08:19:29;;;;;;;1.42;0.50;;;;;;;;;;6099034;23;20014;-48
2022/07/07 08:21:56;;;;;;;0.70;0.40;;;;;;;;;;6095692;23;20022;-46
2022/07/07 08:24:22;;;;;;;0.88;0.50;;;;;;;;;;6084649;23;20105;-45
2022/07/07 08:26:48;;;;;;;2.78;0.52;;;;;;;;;;6068766;23;20088;-47
2022/07/07 08:29:15;;;;;;;0.95;0.43;;;;;;;;;;6088438;23;20440;-44
2022/07/07 08:31:43;;;;;;;1.05;0.50;;;;;;;;;;6110540;23;20029;-44
2022/07/07 08:34:09;;;;;;;0.65;0.40;;;;;;;;;;6102073;23;20646;-44
2022/07/07 08:36:36;;;;;;;1.48;0.40;;;;;;;;;;6107352;23;20460;-46
2022/07/07 08:39:03;;;;;;;0.73;0.43;;;;;;;;;;6096671;23;20017;-47
2022/07/07 08:41:29;;;;;;;0.47;0.45;;;;;;;;;;6081985;23;20081;-47
2022/07/07 08:43:56;;;;;;;1.00;0.57;;;;;;;;;;6079973;23;20017;-46
2022/07/07 08:46:23;;;;;;;1.73;0.52;;;;;;;;;;6068539;23;20414;-45
2022/07/07 08:48:53;;;;;;;2.30;0.50;;;;;;;;;;6072998;23;20033;-47
2022/07/07 08:51:21;;;;;;;0.45;0.45;;;;;;;;;;6071300;23;20374;-45
2022/07/07 08:53:48;;;;;;;1.02;0.70;;;;;;;;;;6104041;23;20017;-46
2022/07/07 08:56:16;;;;;;;1.73;0.80;;;;;;;;;;6115237;23;20037;-48
2022/07/07 08:58:43;;;;;;;3.00;0.75;;;;;;;;;;6102793;23;20060;-46
2022/07/07 09:01:09;;;;;;;1.98;0.80;;;;;;;;;;6108384;23;20350;-47
2022/07/07 09:03:36;;;;;;;2.25;0.85;;;;;;;;;;6164621;23;20319;-47
2022/07/07 09:06:04;;;;;;;1.52;0.88;;;;;;;;;;6181101;23;20087;-46
2022/07/07 09:08:33;;;;;;;1.42;0.90;;;;;;;;;;6166179;23;20068;-46
2022/07/07 09:10:59;;;;;;;1.05;0.60;;;;;;;;;;6135428;23;20052;-44
2022/07/07 09:13:27;;;;;;;1.00;0.77;;;;;;;;;;6171071;23;20013;-46
2022/07/07 09:15:54;;;;;;;1.52;1.15;;;;;;;;;;6165221;23;20335;-49
2022/07/07 09:18:30;;;;;;;7.20;1.13;;;;;;;;;;6174537;23;20024;-46
2022/07/07 09:20:57;;;;;;;1.73;1.00;;;;;;;;;;6161686;23;20376;-44
2022/07/07 09:23:25;;;;;;;0.98;0.80;;;;;;;;;;6172246;23;20433;-47
2022/07/07 09:25:51;;;;;;;1.70;0.82;;;;;;;;;;6170696;23;20050;-45
2022/07/07 09:28:18;;;;;;;1.98;1.23;;;;;;;;;;6159176;23;20032;-44
2022/07/07 09:30:46;;;;;;;2.30;1.70;;;;;;;;;;6164642;23;20025;-46
2022/07/07 09:33:14;;;;;;;1.88;1.00;;;;;;;;;;6162952;23;20040;-45
2022/07/07 09:38:28;;;;;;;4.18;1.65;;;;;;;;;;6164157;23;20021;-46
2022/07/07 09:40:55;;;;;;;1.77;1.40;;;;;;;;;;6164462;23;20553;-45
2022/07/07 09:43:22;;;;;;;2.45;1.27;;;;;;;;;;6166183;23;20017;-44
2022/07/07 09:45:49;;;;;;;2.47;1.30;;;;;;;;;;6163931;23;20052;-46
2022/07/07 09:48:16;;;;;;;2.45;1.52;;;;;;;;;;6173313;23;20036;-44
2022/07/07 09:50:42;;;;;;;4.10;1.70;;;;;;;;;;6141993;23;20023;-47
2022/07/07 09:53:09;;;;;;;4.00;1.38;;;;;;;;;;6171858;23;20514;-46
2022/07/07 09:55:37;;;;;;;5.30;2.22;;;;;;;;;;6167580;23;20013;-43
2022/07/07 09:58:03;;;;;;;2.35;1.20;;;;;;;;;;6152337;23;20022;-45
2022/07/07 10:00:31;;;;;;;1.50;1.05;;;;;;;;;;6104798;23;20021;-46
2022/07/07 10:02:59;;;;;;;1.23;1.00;;;;;;;;;;6117096;23;20028;-45
2022/07/07 10:05:27;;;;;;;1.00;0.90;;;;;;;;;;6106632;23;20040;-45
2022/07/07 10:07:54;;;;;;;5.15;1.77;;;;;;;;;;6105404;23;20025;-45
2022/07/07 10:10:21;;;;;;;2.30;1.45;;;;;;;;;;6119094;23;20014;-45
2022/07/07 10:12:52;;;;;;;3.42;1.42;;;;;;;;;;6110722;23;20681;-43
2022/07/07 10:15:20;;;;;;;1.48;1.35;;;;;;;;;;6116329;23;20022;-45
2022/07/07 10:17:49;;;;;;;1.92;1.30;;;;;;;;;;6088948;23;20022;-46
2022/07/07 10:20:16;;;;;;;2.25;1.30;;;;;;;;;;6115217;23;20129;-45
2022/07/07 10:22:45;;;;;;;4.60;2.13;;;;;;;;;;6114960;23;20041;-45
2022/07/07 10:25:12;;;;;;;2.85;1.40;;;;;;;;;;6096445;23;20045;-44
2022/07/07 10:27:42;;;;;;;2.30;1.52;;;;;;;;;;6113417;23;20054;-44
2022/07/07 10:30:27;;;;;;;1.45;1.05;;;;;;;;;;6097929;23;20037;-45
2022/07/07 10:32:53;;;;;;;3.83;1.80;;;;;;;;;;6112672;23;20500;-45
2022/07/07 10:35:22;;;;;;;2.03;1.25;;;;;;;;;;6102412;23;20037;-45
2022/07/07 10:37:49;;;;;;;1.90;1.07;;;;;;;;;;6110901;23;20025;-45
2022/07/07 10:40:19;;;;;;;5.00;1.33;;;;;;;;;;6086758;23;20254;-45
2022/07/07 10:42:53;;;;;;;1.27;0.90;;;;;;;;;;6105874;23;20602;-45
2022/07/07 10:45:22;;;;;;;2.85;1.45;;;;;;;;;;6107821;23;20025;-46
2022/07/07 10:47:49;;;;;;;7.07;1.17;;;;;;;;;;6102848;23;20028;-49
2022/07/07 10:50:23;;;;;;;4.75;1.67;;;;;;;;;;6116273;23;20389;-46
2022/07/07 10:52:50;;;;;;;1.80;1.17;;;;;;;;;;6101330;23;20057;-46
2022/07/07 10:55:16;;;;;;;2.20;1.10;;;;;;;;;;6107192;23;20014;-44
2022/07/07 10:57:44;;;;;;;1.13;1.02;;;;;;;;;;6090093;23;20492;-47
2022/07/07 11:00:15;;;;;;;1.05;0.88;;;;;;;;;;6112191;23;20025;-44
2022/07/07 11:02:44;;;;;;;2.53;1.15;;;;;;;;;;6075520;23;20017;-45
2022/07/07 11:05:31;;;;;;;1.63;0.90;;;;;;;;;;6112424;23;20018;-45
2022/07/07 11:08:09;;;;;;;4.32;1.50;;;;;;;;;;6103659;23;20025;-48
2022/07/07 11:10:47;;;;;;;2.58;1.10;;;;;;;;;;6093275;23;20277;-46
2022/07/07 11:13:16;;;;;;;1.63;1.30;;;;;;;;;;6112029;23;20475;-45
2022/07/07 11:15:43;;;;;;;4.38;1.30;;;;;;;;;;6100328;23;20077;-48
2022/07/07 11:18:12;;;;;;;2.55;1.00;;;;;;;;;;6118487;23;20048;-48
2022/07/07 11:20:39;;;;;;;;;;;;;;;;;;6101984;23;20605;-47
2022/07/07 11:23:06;;;;;;;4.65;1.85;;;;;;;;;;6112321;23;19924;-45
2022/07/07 11:25:34;;;;;;;1.63;1.10;;;;;;;;;;6102148;23;20510;-48
2022/07/07 11:28:01;;;;;;;3.35;1.55;;;;;;;;;;6112237;23;20027;-48
2022/07/07 11:30:29;;;;;;;6.00;1.60;;;;;;;;;;6098960;23;20013;-48
2022/07/07 11:32:58;;;;;;;2.05;0.90;;;;;;;;;;6114072;23;20026;-44
2022/07/07 11:35:28;;;;;;;0.65;0.55;;;;;;;;;;6106265;23;20014;-46
2022/07/07 11:37:55;;;;;;;3.97;1.67;;;;;;;;;;6107634;23;20028;-45
2022/07/07 11:40:25;;;;;;;1.40;1.10;;;;;;;;;;6084090;23;20024;-44
2022/07/07 11:42:52;;;;;;;3.08;0.90;;;;;;;;;;6109490;23;20022;-46
2022/07/07 11:45:19;;;;;;;2.08;1.20;;;;;;;;;;6103144;23;20028;-45
2022/07/07 11:47:46;;;;;;;2.40;1.15;;;;;;;;;;6110137;23;20014;-46
2022/07/07 11:50:13;;;;;;;4.30;1.40;;;;;;;;;;6104270;23;20326;-47
2022/07/07 11:52:47;;;;;;;1.98;1.35;;;;;;;;;;6101969;23;20026;-45
2022/07/07 11:55:16;;;;;;;2.45;1.13;;;;;;;;;;6102111;23;20117;-47
2022/07/07 11:57:43;;;;;;;1.88;1.00;;;;;;;;;;6100779;23;20018;-50
2022/07/07 12:00:11;;;;;;;1.85;1.15;;;;;;;;;;6100428;23;20018;-44
2022/07/07 12:02:37;;;;;;;1.75;1.23;;;;;;;;;;6080208;23;20032;-46
2022/07/07 12:05:04;;;;;;;2.67;0.90;;;;;;;;;;6091574;23;20034;-45
2022/07/07 12:07:31;;;;;;;1.85;1.00;;;;;;;;;;6094706;23;20056;-45
2022/07/07 12:10:00;;;;;;;3.63;1.55;;;;;;;;;;6115929;23;20045;-47
2022/07/07 12:12:28;;;;;;;1.70;1.02;;;;;;;;;;6075641;23;20073;-46
2022/07/07 12:14:56;;;;;;;2.85;1.10;;;;;;;;;;6107125;23;20040;-45
2022/07/07 12:17:36;;;;;;;2.13;1.08;;;;;;;;;;6076601;23;20021;-46
2022/07/07 12:20:04;;;;;;;1.45;0.90;;;;;;;;;;6109038;23;20096;-46
2022/07/07 12:22:35;;;;;;;3.58;0.98;;;;;;;;;;6108970;23;20018;-45
2022/07/07 12:25:04;;;;;;;3.92;1.20;;;;;;;;;;6102777;23;20424;-48
2022/07/07 12:27:31;;;;;;;1.50;1.17;;;;;;;;;;6110504;23;20017;-43
2022/07/07 12:29:59;;;;;;;2.28;1.38;;;;;;;;;;6075060;23;20501;-46
2022/07/07 12:32:26;;;;;;;3.28;0.90;;;;;;;;;;6102233;23;20021;-48
2022/07/07 12:34:54;;;;;;;2.60;1.15;;;;;;;;;;6092187;23;20527;-46
2022/07/07 12:37:21;;;;;;;2.92;0.98;;;;;;;;;;6102471;23;20315;-45
2022/07/07 12:39:50;;;;;;;1.45;0.90;;;;;;;;;;6104322;23;20467;-44
2022/07/07 12:42:17;;;;;;;;;;;;;;;;;;6101829;23;20014;-47
2022/07/07 12:44:45;;;;;;;2.28;1.02;;;;;;;;;;6096393;23;19944;-51
2022/07/07 12:47:12;;;;;;;2.88;0.93;;;;;;;;;;6099847;23;20022;-44
2022/07/07 12:49:52;;;;;;;1.98;1.00;;;;;;;;;;6105059;23;20086;-46
2022/07/07 12:52:19;;;;;;;1.70;1.00;;;;;;;;;;6096294;23;20026;-45
2022/07/07 12:54:47;;;;;;;4.50;1.10;;;;;;;;;;6081673;23;20026;-46
2022/07/07 12:57:14;;;;;;;4.18;1.10;;;;;;;;;;6111780;23;20021;-46
2022/07/07 12:59:44;;;;;;;5.07;1.25;;;;;;;;;;6105219;23;20507;-46
2022/07/07 13:02:13;;;;;;;2.28;0.85;;;;;;;;;;6096399;23;20014;-47
2022/07/07 13:04:42;;;;;;;2.90;1.10;;;;;;;;;;6108488;23;20018;-45
2022/07/07 13:07:08;;;;;;;;;;;;;;;;;;6105568;23;20447;-46
2022/07/07 13:09:35;;;;;;;2.88;1.13;;;;;;;;;;6112542;23;19917;-45
2022/07/07 13:12:02;;;;;;;1.30;0.90;;;;;;;;;;6111976;23;20049;-45
2022/07/07 13:14:29;;;;;;;4.22;1.25;;;;;;;;;;6102225;23;20018;-46
2022/07/07 13:16:56;;;;;;;1.90;1.05;;;;;;;;;;6078722;23;20018;-47
2022/07/07 13:19:25;;;;;;;2.33;0.77;;;;;;;;;;6109855;23;20033;-47
2022/07/07 13:21:52;;;;;;;3.00;0.98;;;;;;;;;;6106704;23;20183;-45
2022/07/07 13:24:19;;;;;;;3.45;0.93;;;;;;;;;;6110906;23;20025;-45
2022/07/07 13:26:47;;;;;;;2.45;1.10;;;;;;;;;;6105834;23;20089;-47
2022/07/07 13:29:17;;;;;;;1.70;0.85;;;;;;;;;;6111160;23;20014;-45
2022/07/07 13:31:43;;;;;;;4.53;0.95;;;;;;;;;;6105427;23;20049;-48
2022/07/07 13:34:10;;;;;;;4.63;0.77;;;;;;;;;;6107594;23;20018;-47
2022/07/07 13:36:38;;;;;;;2.40;0.93;;;;;;;;;;6110176;23;20046;-45
2022/07/07 13:39:05;;;;;;;3.65;1.17;;;;;;;;;;6098329;23;20033;-46
2022/07/07 13:41:32;;;;;;;2.60;0.82;;;;;;;;;;6109617;23;20030;-46
2022/07/07 13:43:59;;;;;;;1.15;0.75;;;;;;;;;;6084242;23;20014;-45
2022/07/07 13:46:25;;;;;;;6.60;1.42;;;;;;;;;;6095795;23;20018;-45
2022/07/07 13:48:52;;;;;;;1.23;0.80;;;;;;;;;;6108868;23;20025;-46
2022/07/07 13:51:18;;;;;;;2.80;0.73;;;;;;;;;;6105592;23;20014;-46
2022/07/07 13:53:46;;;;;;;3.30;0.95;;;;;;;;;;6112595;23;20029;-45
2022/07/07 13:56:13;;;;;;;2.30;1.25;;;;;;;;;;6108097;23;20024;-46
2022/07/07 13:58:40;;;;;;;2.88;1.10;;;;;;;;;;6081918;23;20405;-45
2022/07/07 14:01:07;;;;;;;5.43;0.80;;;;;;;;;;6105685;23;20728;-46
2022/07/07 14:03:34;;;;;;;3.15;0.70;;;;;;;;;;6077758;23;20060;-45
2022/07/07 14:06:01;;;;;;;2.50;0.73;;;;;;;;;;6107449;23;20093;-46
2022/07/07 14:08:28;;;;;;;1.80;1.10;;;;;;;;;;6114156;23;20105;-48
2022/07/07 14:10:56;;;;;;;1.40;1.02;;;;;;;;;;6104842;23;20022;-46
2022/07/07 14:13:24;;;;;;;3.67;1.30;;;;;;;;;;6107963;23;20026;-45
2022/07/07 14:15:52;;;;;;;2.13;0.90;;;;;;;;;;6106531;23;20018;-44
2022/07/07 14:18:19;;;;;;;2.70;1.05;;;;;;;;;;6108459;23;20014;-45
2022/07/07 14:20:46;;;;;;;1.65;1.00;;;;;;;;;;6110657;23;20042;-45
2022/07/07 14:23:14;;;;;;;1.42;0.70;;;;;;;;;;6108622;23;20086;-45
2022/07/07 14:25:40;;;;;;;1.45;0.75;;;;;;;;;;6104729;23;20050;-46
2022/07/07 14:28:08;;;;;;;1.00;0.77;;;;;;;;;;6113203;23;20014;-45
2022/07/07 14:30:35;;;;;;;2.67;0.82;;;;;;;;;;6106101;23;20072;-46
2022/07/07 14:33:05;;;;;;;1.15;0.80;;;;;;;;;;6096218;23;20398;-46
2022/07/07 14:35:32;;;;;;;1.55;0.77;;;;;;;;;;6108735;23;20014;-45
2022/07/07 14:37:58;;;;;;;1.70;0.90;;;;;;;;;;6103936;23;20021;-45
2022/07/07 14:40:25;;;;;;;1.27;0.88;;;;;;;;;;6099557;23;20022;-45
2022/07/07 14:45:34;;;;;;;1.25;0.70;;;;;;;;;;6068694;23;20510;-48
2022/07/07 14:48:01;;;;;;;3.15;0.98;;;;;;;;;;6163869;23;20515;-45
2022/07/07 14:50:28;;;;;;;2.22;0.98;;;;;;;;;;6134998;23;20032;-49